Map

Track Data

SID SEASON NUMBER BASIN SUBBASIN NAME ISO_TIME NATURE LAT LON WMO_WIND WMO_PRES WMO_AGENCY TRACK_TYPE DIST2LAND LANDFALL IFLAG USA_AGENCY USA_ATCF_ID USA_LAT USA_LON USA_RECORD USA_STATUS USA_WIND USA_PRES USA_SSHS USA_R34_NE USA_R34_SE USA_R34_SW USA_R34_NW USA_R50_NE USA_R50_SE USA_R50_SW USA_R50_NW USA_R64_NE USA_R64_SE USA_R64_SW USA_R64_NW USA_POCI USA_ROCI USA_RMW USA_EYE TOKYO_LAT TOKYO_LON TOKYO_GRADE TOKYO_WIND TOKYO_PRES TOKYO_R50_DIR TOKYO_R50_LONG TOKYO_R50_SHORT TOKYO_R30_DIR TOKYO_R30_LONG TOKYO_R30_SHORT TOKYO_LAND CMA_LAT CMA_LON CMA_CAT CMA_WIND CMA_PRES HKO_LAT HKO_LON HKO_CAT HKO_WIND HKO_PRES NEWDELHI_LAT NEWDELHI_LON NEWDELHI_GRADE NEWDELHI_WIND NEWDELHI_PRES NEWDELHI_CI NEWDELHI_DP NEWDELHI_POCI REUNION_LAT REUNION_LON REUNION_TYPE REUNION_WIND REUNION_PRES REUNION_TNUM REUNION_CI REUNION_RMW REUNION_R34_NE REUNION_R34_SE REUNION_R34_SW REUNION_R34_NW REUNION_R50_NE REUNION_R50_SE REUNION_R50_SW REUNION_R50_NW REUNION_R64_NE REUNION_R64_SE REUNION_R64_SW REUNION_R64_NW BOM_LAT BOM_LON BOM_TYPE BOM_WIND BOM_PRES BOM_TNUM BOM_CI BOM_RMW BOM_R34_NE BOM_R34_SE BOM_R34_SW BOM_R34_NW BOM_R50_NE BOM_R50_SE BOM_R50_SW BOM_R50_NW BOM_R64_NE BOM_R64_SE BOM_R64_SW BOM_R64_NW BOM_ROCI BOM_POCI BOM_EYE BOM_POS_METHOD BOM_PRES_METHOD NADI_LAT NADI_LON NADI_CAT NADI_WIND NADI_PRES WELLINGTON_LAT WELLINGTON_LON WELLINGTON_WIND WELLINGTON_PRES DS824_LAT DS824_LON DS824_STAGE DS824_WIND DS824_PRES TD9636_LAT TD9636_LON TD9636_STAGE TD9636_WIND TD9636_PRES TD9635_LAT TD9635_LON TD9635_WIND TD9635_PRES TD9635_ROCI NEUMANN_LAT NEUMANN_LON NEUMANN_CLASS NEUMANN_WIND NEUMANN_PRES MLC_LAT MLC_LON MLC_CLASS MLC_WIND MLC_PRES USA_GUST BOM_GUST BOM_GUST_PER REUNION_GUST REUNION_GUST_PER USA_SEAHGT USA_SEARAD_NE USA_SEARAD_SE USA_SEARAD_SW USA_SEARAD_NW STORM_SPEED STORM_DIR
1907224N20134 1907 37 WP MM NOT_NAMED 1907-08-11 16:00:00 NR 19.8000 133.800 main 1198 1198 __________O___ -1 19.8000 133.800 7 8 19
1907224N20134 1907 37 WP MM NOT_NAMED 1907-08-11 18:00:00 NR 20.0457 133.883 main 1219 1225 __________P___ -1 20.0457 133.883 7 8 17
1907224N20134 1907 37 WP MM NOT_NAMED 1907-08-11 21:00:00 NR 20.4159 134.008 main 1229 1188 __________P___ -1 20.4159 134.008 7 8 17
1907224N20134 1907 37 WP MM NOT_NAMED 1907-08-12 00:00:00 NR 20.7902 134.133 main 1188 1151 __________P___ -1 20.7902 134.133 7 8 17
1907224N20134 1907 37 WP MM NOT_NAMED 1907-08-12 03:00:00 NR 21.1711 134.258 main 1151 1141 __________P___ -1 21.1711 134.258 7 8 17
1907224N20134 1907 37 WP MM NOT_NAMED 1907-08-12 04:00:00 NR 21.3000 134.300 main 1141 1112 __________O___ -1 21.3000 134.300 3 8 17
1907224N20134 1907 37 WP MM NOT_NAMED 1907-08-12 06:00:00 NR 21.5614 134.384 main 1112 1073 __________P___ -1 21.5614 134.384 3 8 16
1907224N20134 1907 37 WP MM NOT_NAMED 1907-08-12 09:00:00 NR 21.9659 134.509 main 1073 1035 __________P___ -1 21.9659 134.509 3 9 16
1907224N20134 1907 37 WP MM NOT_NAMED 1907-08-12 12:00:00 NR 22.3909 134.634 main 1035 997 __________P___ -1 22.3909 134.634 3 9 15
1907224N20134 1907 37 WP MM NOT_NAMED 1907-08-12 15:00:00 NR 22.8425 134.758 main 1001 981 __________P___ -1 22.8425 134.758 3 9 14
1907224N20134 1907 37 WP MM NOT_NAMED 1907-08-12 16:00:00 NR 23.0000 134.800 main 981 954 __________O___ -1 23.0000 134.800 4 10 14
1907224N20134 1907 37 WP MM NOT_NAMED 1907-08-12 18:00:00 NR 23.3350 134.886 main 954 898 __________P___ -1 23.3350 134.886 4 11 13
1907224N20134 1907 37 WP MM NOT_NAMED 1907-08-12 21:00:00 NR 23.8630 135.015 main 898 854 __________P___ -1 23.8630 135.015 4 11 12
1907224N20134 1907 37 WP MM NOT_NAMED 1907-08-13 00:00:00 NR 24.4020 135.141 main 854 811 __________P___ -1 24.4020 135.141 4 11 12
1907224N20134 1907 37 WP MM NOT_NAMED 1907-08-13 03:00:00 NR 24.9301 135.262 main 816 798 __________P___ -1 24.9301 135.262 4 11 11
1907224N20134 1907 37 WP MM NOT_NAMED 1907-08-13 04:00:00 NR 25.1000 135.300 main 798 775 __________O___ -1 25.1000 135.300 4 10 11
1907224N20134 1907 37 WP MM NOT_NAMED 1907-08-13 06:00:00 NR 25.4144 135.365 main 775 732 __________P___ -1 25.4144 135.365 4 9 11
1907224N20134 1907 37 WP MM NOT_NAMED 1907-08-13 09:00:00 NR 25.8671 135.456 main 732 694 __________P___ -1 25.8671 135.456 4 9 11
1907224N20134 1907 37 WP MM NOT_NAMED 1907-08-13 12:00:00 NR 26.3082 135.549 main 694 661 __________P___ -1 26.3082 135.549 4 9 12
1907224N20134 1907 37 WP MM NOT_NAMED 1907-08-13 15:00:00 NR 26.7503 135.658 main 661 652 __________P___ -1 26.7503 135.658 4 9 13
1907224N20134 1907 37 WP MM NOT_NAMED 1907-08-13 16:00:00 NR 26.9000 135.700 main 652 633 __________O___ -1 26.9000 135.700 4 9 15
1907224N20134 1907 37 WP MM NOT_NAMED 1907-08-13 18:00:00 NR 27.2049 135.794 main 633 606 __________P___ -1 27.2049 135.794 4 10 16
1907224N20134 1907 37 WP MM NOT_NAMED 1907-08-13 21:00:00 NR 27.6740 135.957 main 606 576 __________P___ -1 27.6740 135.957 4 10 18
1907224N20134 1907 37 WP MM NOT_NAMED 1907-08-14 00:00:00 NR 28.1532 136.139 main 576 537 __________P___ -1 28.1532 136.139 4 10 19
1907224N20134 1907 37 WP MM NOT_NAMED 1907-08-14 03:00:00 NR 28.6380 136.334 main 537 516 __________P___ -1 28.6380 136.334 4 10 20
1907224N20134 1907 37 WP MM NOT_NAMED 1907-08-14 04:00:00 NR 28.8000 136.400 main 516 __________O___ -1 28.8000 136.400 4 10 20

Digital Typhoon Data and Search

About IBTrACS Database

This database is a web-friendly format of International Best Track Archive for Climate Stewardship (IBTrACS), a global best track data archive curated by NOAA dating back to 1842.

Updated: 2021-10-08